General Aviation Weather

Text Reports

Enter one or more of the following location identifiers separated by a space:

Zip Code, Four-Character ICAO or Three-Character IATA airport codes.

METAR - Aviation Routine Weather Report
KFUL - Fullerton, California
Updated at 7:53 PM GMT on May 27, 2015 (12:53 PM PDT):
METAR KFUL 271953Z VRB03KT 7SM FEW031 22/11 A2998 RMK AO2 SLP151 T02220111
TAF - Terminal Area Forecast
KFUL - Fullerton, California
Updated at 7:53 PM GMT on May 27, 2015 (12:53 PM PDT):
No TAF is currently available for this location.
Decoded:
No decoded TAF is available.
PIREP - Pilot Weather Report
KFUL - Fullerton, California
Updated at 7:53 PM GMT on May 27, 2015 (12:53 PM PDT):
No PIREP is currently available for this location.
AIRMET - Airmens Meteorological Information
KFUL - Fullerton, California
Updated at 7:53 PM GMT on May 27, 2015 (12:53 PM PDT):
No AIRMET is currently available for this location.
SIGMET - Significant Meteorological Information
KFUL - Fullerton, California
Updated at 7:53 PM GMT on May 27, 2015 (12:53 PM PDT):
No SIGMET is currently available for this location.
NOTAM - Notice to Airmen
KFUL - Fullerton, California
Updated at 7:53 PM GMT on May 27, 2015 (12:53 PM PDT):
No NOTAM is currently available for this location.
Forecast Area
KFUL - Fullerton, California
Updated at 7:53 PM GMT on May 27, 2015 (12:53 PM PDT):
No NOTAM is currently available for this location.
Aviation Weather Maps